Thursday, March 21, 2019, 4:38 PM EDT
Back to Local

KMFV, Melfa / Accomack Airport

Location: Melfa, VA, United States Lat: 37.65
Local Time: 4:38 PM EDT (20:38 GMT) Lon: -75.767
Time Zone: US/Eastern Elev: 49 ft

Show me the last for .
Show Coded

Time T Td Feel RH Dir Speed Gust Alt SLP Vis Weather Sky Remarks
2019-03-21 16:15 54 51 - 88 110° 14 18 29.60 - 3 +DZ BKN018 BKN024 OVC031 1-hr Precip Total: 0.01"
2019-03-21 15:55 56 51 - 83 110° 16 26 29.61 - 10 SCT023 BKN030 OVC048 None
2019-03-21 15:35 56 51 - 83 110° 13 23 29.62 - 7 BKN030 BKN036 OVC050 None
2019-03-21 15:15 56 50 - 81 110° 14 28 29.64 - 10 SCT030 BKN036 OVC050 None
2019-03-21 14:55 55 51 - 84 110° 15 20 29.66 - 7 SCT030 BKN037 OVC065 None
2019-03-21 14:35 56 52 - 85 110° 13 20 29.69 - 7 SCT036 OVC060 None
2019-03-21 14:15 55 51 - 85 110° 13 22 29.73 - 7 SCT055 BKN065 OVC080 None
2019-03-21 13:55 56 52 - 87 110° 13 22 29.73 - 7 OVC080 6-hr Precip Total (2pm): 0.35"
6-hr Min Temp (2pm): 51.8°F
6-hr Max Temp (2pm): 56.5°F
2019-03-21 13:35 56 52 - 87 110° 12 21 29.76 - 7 SCT008 BKN070 OVC085 None
2019-03-21 13:15 55 53 - 91 120° 13 23 29.78 - 7 BKN008 OVC080 None
2019-03-21 12:55 55 53 - 91 120° 14 22 29.80 - 7 BKN008 OVC090 None
2019-03-21 12:35 55 53 - 91 110° 12 22 29.81 - 10 SCT028 SCT045 OVC090 None
2019-03-21 12:15 55 53 - 93 120° 14 23 29.82 - 7 SCT008 BKN025 OVC070 None
2019-03-21 11:55 54 53 - 94 120° 15 23 29.84 - 5 RA SCT010 BKN022 OVC060 1-hr Precip Total: 0.01"
2019-03-21 11:35 55 53 - 91 130° 15 23 29.86 - 5 -RA SCT028 BKN050 OVC080 None
2019-03-21 11:15 55 54 - 93 110° 12 21 29.86 - 7 SCT041 BKN065 OVC080 None
2019-03-21 10:55 55 53 - 95 120° 12 23 29.87 - 10 SCT007 BKN044 OVC090 1-hr Precip Total: 0.01"
6-hr Precip Total (11am): 0.34"
2019-03-21 10:35 54 53 - 96 110° 8 21 29.89 - 7 DZ BKN005 BKN016 OVC070 1-hr Precip Total: 0.01"
2019-03-21 10:15 53 53 - 98 110° 8 - 29.90 - 7 -RA BKN005 OVC010 None
2019-03-21 09:55 53 53 - 98 100° 3 - 29.91 - 5 -RA BKN005 BKN009 OVC048 1-hr Precip Total: 0.17"
2019-03-21 09:35 52 52 - 98 130° 8 - 29.94 - 3 RA BKN005 BKN008 OVC049 1-hr Precip Total: 0.15"
2019-03-21 09:15 52 51 - 98 80° 3 - 29.94 - 4 RA BKN005 OVC014 1-hr Precip Total: 0.09"
2019-03-21 08:55 52 51 - 98 - Calm - 29.96 - 2 +RA OVC005 1-hr Precip Total: 0.16"
2019-03-21 08:35 52 51 - 97 130° 3 - 29.95 - 5 RA OVC005 1-hr Precip Total: 0.07"
2019-03-21 08:15 52 51 - 97 110° 5 - 29.96 - 4 -RA BKN005 OVC016 1-hr Precip Total: 0.02"
2019-03-21 07:55 52 51 - 97 130° 6 - 29.96 - 5 RA SCT007 BKN019 OVC080 1-hr Precip Total: 0.04"
6-hr Precip Total (8am): 0.14"
24-hr Precip Total (8am): 0.40"
6-hr Min Temp (8am): 49.1°F
6-hr Max Temp (8am): 52.0°F
2019-03-21 07:35 52 51 - 97 130° 6 - 29.96 - 7 -RA SCT013 BKN050 OVC070 1-hr Precip Total: 0.03"
2019-03-21 07:15 51 50 - 97 120° 5 - 29.97 - 7 -RA BKN027 BKN042 OVC050 1-hr Precip Total: 0.01"
2019-03-21 06:55 51 50 - 97 120° 5 - 29.98 - 5 -RA SCT025 BKN030 OVC065 1-hr Precip Total: 0.06"
2019-03-21 06:35 50 49 48 97 120° 6 - 29.98 - 7 RA SCT021 BKN030 OVC045 1-hr Precip Total: 0.04"
2019-03-21 06:15 49 49 47 97 90° 7 - 29.99 - 7 RA BKN023 OVC034 1-hr Precip Total: 0.01"
2019-03-21 05:55 50 49 47 98 90° 7 - 29.99 - 7 DZ BKN023 BKN034 OVC060 None
2019-03-21 05:35 50 49 46 98 90° 8 - 30.00 - 7 SCT026 BKN043 OVC070 None
2019-03-21 05:15 49 49 46 98 90° 7 - 30.01 - 7 -DZ SCT043 BKN070 OVC090 None
2019-03-21 04:55 49 49 47 98 90° 6 - 30.02 - 7 -DZ SCT043 BKN060 OVC090 6-hr Precip Total (5am): 0.04"
2019-03-21 04:35 49 49 46 98 90° 8 - 30.02 - 7 -DZ SCT036 BKN060 OVC090 None
2019-03-21 04:15 49 49 47 98 90° 5 - 30.04 - 7 SCT004 BKN038 OVC047 None
2019-03-21 03:55 49 48 47 97 80° 6 - 30.05 - 7 BKN004 BKN023 OVC038 1-hr Precip Total: 0.01"
2019-03-21 03:35 49 48 46 97 90° 7 - 30.06 - 7 SCT004 SCT023 OVC038 1-hr Precip Total: 0.01"
2019-03-21 03:15 49 48 46 97 80° 8 - 30.07 - 5 DZ SCT004 SCT029 OVC036 1-hr Precip Total: 0.01"
2019-03-21 02:55 49 48 46 97 90° 7 - 30.09 - 3 DZ SCT006 BKN029 OVC037 1-hr Precip Total: 0.03"
2019-03-21 02:35 49 49 47 98 100° 6 - 30.10 - 7 DZ SCT011 BKN028 OVC040 1-hr Precip Total: 0.02"
2019-03-21 02:15 49 49 47 98 100° 6 - 30.11 - 7 DZ SCT005 BKN031 OVC039 1-hr Precip Total: 0.02"
2019-03-21 01:55 49 49 46 98 90° 7 - 30.12 - 4 RA BKN005 OVC009 1-hr Precip Total: 0.11"
6-hr Precip Total (2am): 0.25"
6-hr Min Temp (2am): 45.5°F
6-hr Max Temp (2am): 49.5°F
2019-03-21 01:35 49 49 47 97 100° 6 - 30.12 - 3 RA OVC005 1-hr Precip Total: 0.07"
2019-03-21 01:15 49 49 47 98 90° 6 - 30.14 - 4 RA OVC005 1-hr Precip Total: 0.02"
2019-03-21 00:55 49 48 46 97 70° 6 - 30.14 - 7 DZ OVC003 1-hr Precip Total: 0.01"
24-hr Min Temp (1am): 27.7°F
24-hr Max Temp (1am): 52.5°F
2019-03-21 00:35 49 48 46 97 50° 6 - 30.15 - 7 DZ OVC003 1-hr Precip Total: 0.01"
2019-03-21 00:15 49 48 45 97 70° 10 - 30.15 - 10 OVC003 None
2019-03-20 23:55 49 48 45 97 80° 9 - 30.16 - 10 OVC003 1-hr Precip Total: 0.03"
2019-03-20 23:35 49 48 45 98 80° 9 - 30.17 - 10 OVC003 1-hr Precip Total: 0.03"
2019-03-20 23:15 47 47 44 97 70° 8 - 30.18 - 7 -RA OVC005 1-hr Precip Total: 0.03"
2019-03-20 22:55 47 46 45 96 60° 6 - 30.19 - 5 RA OVC005 1-hr Precip Total: 0.06"
6-hr Precip Total (11pm): 0.10"
2019-03-20 22:35 47 46 44 96 60° 6 - 30.20 - 7 -RA BKN005 BKN017 OVC090 1-hr Precip Total: 0.01"
2019-03-20 22:15 46 45 42 95 70° 8 - 30.20 - 10 -DZ BKN070 OVC090 None
2019-03-20 21:55 46 45 42 94 80° 9 - 30.21 - 10 SCT046 BKN070 OVC100 None
2019-03-20 21:35 46 45 42 95 80° 8 - 30.22 - 10 -DZ BKN044 OVC055 None
2019-03-20 21:15 46 44 42 94 80° 7 - 30.22 - 10 -DZ BKN055 BKN065 OVC080 None
2019-03-20 20:55 46 44 41 93 70° 9 - 30.22 - 10 RA SCT044 BKN065 OVC075 1-hr Precip Total: 0.04"
2019-03-20 20:35 46 43 41 91 70° 8 - 30.23 - 10 RA SCT044 BKN050 OVC060 1-hr Precip Total: 0.03"
2019-03-20 20:15 46 43 42 87 70° 8 - 30.23 - 7 RA OVC046 1-hr Precip Total: 0.01"
2019-03-20 19:55 46 42 42 83 70° 8 - 30.23 - 10 DZ OVC046 6-hr Min Temp (8pm): 46.0°F
6-hr Max Temp (8pm): 52.5°F
2019-03-20 19:35 46 42 42 83 70° 8 - 30.23 - 10 BKN050 OVC055 None
2019-03-20 19:15 46 41 42 83 60° 9 - 30.22 - 10 OVC050 None
2019-03-20 18:55 46 41 42 82 60° 8 - 30.23 - 10 BKN050 BKN060 OVC085 None
2019-03-20 18:35 46 41 42 82 70° 8 - 30.24 - 10 RA SCT060 BKN065 OVC085 None
2019-03-20 18:15 47 40 42 76 70° 10 - 30.24 - 10 -RA BKN060 OVC070 None
2019-03-20 17:55 48 38 43 69 70° 12 - 30.24 - 10 -DZ OVC060 None
2019-03-20 17:35 49 38 44 64 80° 15 - 30.24 - 10 OVC060 None
2019-03-20 17:15 49 37 44 63 60° 14 - 30.25 - 10 OVC060 None
2019-03-20 16:55 50 37 - 61 60° 16 - 30.25 - 10 OVC060 None

Support USWX by starting your Amazon purchase here.